sensor_id;sensor_type;location;lat;lon;timestamp;pressure;altitude;pressure_sealevel;temperature;humidity
21658;BME280;10990;48.174;9.782;2023-01-26T00:00:51;93080.19;;;-0.49;100.00
21658;BME280;10990;48.174;9.782;2023-01-26T00:03:20;93097.63;;;-0.59;100.00
21658;BME280;10990;48.174;9.782;2023-01-26T00:05:47;93131.75;;;-0.81;100.00
21658;BME280;10990;48.174;9.782;2023-01-26T00:08:14;93098.44;;;-0.58;100.00
21658;BME280;10990;48.174;9.782;2023-01-26T00:10:41;93126.28;;;-0.78;100.00
21658;BME280;10990;48.174;9.782;2023-01-26T00:13:16;93155.41;;;-0.94;100.00
21658;BME280;10990;48.174;9.782;2023-01-26T00:15:43;93113.75;;;-0.65;100.00
21658;BME280;10990;48.174;9.782;2023-01-26T00:18:09;93114.53;;;-0.55;100.00
21658;BME280;10990;48.174;9.782;2023-01-26T00:20:37;93137.09;;;-0.65;100.00
21658;BME280;10990;48.174;9.782;2023-01-26T00:23:04;93148.81;;;-0.79;100.00
21658;BME280;10990;48.174;9.782;2023-01-26T00:25:31;93147.97;;;-0.79;100.00
21658;BME280;10990;48.174;9.782;2023-01-26T00:27:58;93163.31;;;-0.86;100.00
21658;BME280;10990;48.174;9.782;2023-01-26T00:30:24;93168.78;;;-0.89;100.00
21658;BME280;10990;48.174;9.782;2023-01-26T00:32:51;93174.13;;;-1.00;100.00
21658;BME280;10990;48.174;9.782;2023-01-26T00:35:19;93182.34;;;-1.05;100.00
21658;BME280;10990;48.174;9.782;2023-01-26T00:37:47;93165.66;;;-1.02;100.00
21658;BME280;10990;48.174;9.782;2023-01-26T00:40:14;93155.56;;;-0.96;100.00
21658;BME280;10990;48.174;9.782;2023-01-26T00:42:42;93147.88;;;-0.87;100.00
21658;BME280;10990;48.174;9.782;2023-01-26T00:45:09;93146.53;;;-0.92;100.00
21658;BME280;10990;48.174;9.782;2023-01-26T00:47:36;93141.84;;;-0.88;100.00
21658;BME280;10990;48.174;9.782;2023-01-26T00:50:04;93116.81;;;-0.70;100.00
21658;BME280;10990;48.174;9.782;2023-01-26T00:52:30;93085.63;;;-0.42;100.00
21658;BME280;10990;48.174;9.782;2023-01-26T00:54:59;93084.22;;;-0.36;100.00
21658;BME280;10990;48.174;9.782;2023-01-26T00:57:25;93099.41;;;-0.41;100.00
21658;BME280;10990;48.174;9.782;2023-01-26T00:59:52;93121.78;;;-0.58;100.00
21658;BME280;10990;48.174;9.782;2023-01-26T01:02:19;93106.31;;;-0.50;100.00
21658;BME280;10990;48.174;9.782;2023-01-26T01:04:47;93119.13;;;-0.49;100.00
21658;BME280;10990;48.174;9.782;2023-01-26T01:07:14;93126.00;;;-0.57;100.00
21658;BME280;10990;48.174;9.782;2023-01-26T01:09:41;93132.88;;;-0.66;100.00
21658;BME280;10990;48.174;9.782;2023-01-26T01:12:09;93114.91;;;-0.50;100.00
21658;BME280;10990;48.174;9.782;2023-01-26T01:14:36;93100.16;;;-0.31;100.00
21658;BME280;10990;48.174;9.782;2023-01-26T01:17:02;93093.50;;;-0.34;100.00
21658;BME280;10990;48.174;9.782;2023-01-26T01:19:29;93114.63;;;-0.47;100.00
21658;BME280;10990;48.174;9.782;2023-01-26T01:21:56;93103.22;;;-0.36;100.00
21658;BME280;10990;48.174;9.782;2023-01-26T01:24:22;93134.31;;;-0.54;100.00
21658;BME280;10990;48.174;9.782;2023-01-26T01:26:49;93111.44;;;-0.40;100.00
21658;BME280;10990;48.174;9.782;2023-01-26T01:29:17;93115.88;;;-0.51;100.00
21658;BME280;10990;48.174;9.782;2023-01-26T01:31:44;93107.88;;;-0.39;100.00
21658;BME280;10990;48.174;9.782;2023-01-26T01:34:10;93109.66;;;-0.40;100.00
21658;BME280;10990;48.174;9.782;2023-01-26T01:36:37;93132.84;;;-0.56;100.00
21658;BME280;10990;48.174;9.782;2023-01-26T01:39:04;93145.19;;;-0.68;100.00
21658;BME280;10990;48.174;9.782;2023-01-26T01:41:31;93131.06;;;-0.56;100.00
21658;BME280;10990;48.174;9.782;2023-01-26T01:44:11;93133.56;;;-0.64;100.00
21658;BME280;10990;48.174;9.782;2023-01-26T01:46:44;93113.28;;;-0.51;100.00
21658;BME280;10990;48.174;9.782;2023-01-26T01:49:16;93131.91;;;-0.65;100.00
21658;BME280;10990;48.174;9.782;2023-01-26T01:51:48;93125.19;;;-0.58;100.00
21658;BME280;10990;48.174;9.782;2023-01-26T01:54:29;93138.47;;;-0.61;100.00
21658;BME280;10990;48.174;9.782;2023-01-26T01:57:01;93113.13;;;-0.49;100.00
21658;BME280;10990;48.174;9.782;2023-01-26T01:59:30;93103.72;;;-0.32;100.00
21658;BME280;10990;48.174;9.782;2023-01-26T02:01:59;93115.44;;;-0.46;100.00
21658;BME280;10990;48.174;9.782;2023-01-26T02:04:26;93128.09;;;-0.61;100.00
21658;BME280;10990;48.174;9.782;2023-01-26T02:06:56;93108.63;;;-0.47;100.00
21658;BME280;10990;48.174;9.782;2023-01-26T02:09:28;93094.06;;;-0.40;100.00
21658;BME280;10990;48.174;9.782;2023-01-26T02:12:17;93101.56;;;-0.37;100.00
21658;BME280;10990;48.174;9.782;2023-01-26T02:14:47;93099.81;;;-0.36;100.00
21658;BME280;10990;48.174;9.782;2023-01-26T02:17:16;93109.28;;;-0.45;100.00
21658;BME280;10990;48.174;9.782;2023-01-26T02:19:50;93093.78;;;-0.37;100.00
21658;BME280;10990;48.174;9.782;2023-01-26T02:22:29;93100.66;;;-0.46;100.00
21658;BME280;10990;48.174;9.782;2023-01-26T02:25:01;93094.53;;;-0.44;100.00
21658;BME280;10990;48.174;9.782;2023-01-26T02:27:31;93082.06;;;-0.41;100.00
21658;BME280;10990;48.174;9.782;2023-01-26T02:29:59;93079.97;;;-0.37;100.00
21658;BME280;10990;48.174;9.782;2023-01-26T02:32:26;93076.34;;;-0.44;100.00
21658;BME280;10990;48.174;9.782;2023-01-26T02:34:54;93077.84;;;-0.42;100.00
21658;BME280;10990;48.174;9.782;2023-01-26T02:37:22;93098.44;;;-0.58;100.00
21658;BME280;10990;48.174;9.782;2023-01-26T02:39:54;93089.25;;;-0.53;100.00
21658;BME280;10990;48.174;9.782;2023-01-26T02:42:23;93095.03;;;-0.59;100.00
21658;BME280;10990;48.174;9.782;2023-01-26T02:45:09;93088.47;;;-0.63;100.00
21658;BME280;10990;48.174;9.782;2023-01-26T02:47:36;93107.00;;;-0.76;100.00
21658;BME280;10990;48.174;9.782;2023-01-26T02:50:05;93092.75;;;-0.72;100.00
21658;BME280;10990;48.174;9.782;2023-01-26T02:52:32;93091.28;;;-0.74;100.00
21658;BME280;10990;48.174;9.782;2023-01-26T02:55:07;93098.72;;;-0.89;100.00
21658;BME280;10990;48.174;9.782;2023-01-26T02:57:52;93067.69;;;-0.81;100.00
21658;BME280;10990;48.174;9.782;2023-01-26T03:00:23;93067.81;;;-0.82;100.00
21658;BME280;10990;48.174;9.782;2023-01-26T03:02:52;93042.34;;;-0.69;100.00
21658;BME280;10990;48.174;9.782;2023-01-26T03:05:20;93042.94;;;-0.75;100.00
21658;BME280;10990;48.174;9.782;2023-01-26T03:07:47;93024.06;;;-0.68;100.00
21658;BME280;10990;48.174;9.782;2023-01-26T03:10:14;93042.34;;;-0.87;100.00
21658;BME280;10990;48.174;9.782;2023-01-26T03:12:42;93032.78;;;-0.86;100.00
21658;BME280;10990;48.174;9.782;2023-01-26T03:15:09;93036.25;;;-0.96;100.00
21658;BME280;10990;48.174;9.782;2023-01-26T03:18:01;93010.22;;;-0.86;100.00
21658;BME280;10990;48.174;9.782;2023-01-26T03:20:51;92978.88;;;-0.75;100.00
21658;BME280;10990;48.174;9.782;2023-01-26T03:23:35;92973.09;;;-0.69;100.00
21658;BME280;10990;48.174;9.782;2023-01-26T03:26:21;92975.69;;;-0.69;100.00
21658;BME280;10990;48.174;9.782;2023-01-26T03:29:06;92957.16;;;-0.56;100.00
21658;BME280;10990;48.174;9.782;2023-01-26T03:31:33;92965.69;;;-0.63;100.00
21658;BME280;10990;48.174;9.782;2023-01-26T03:34:01;92971.00;;;-0.65;100.00
21658;BME280;10990;48.174;9.782;2023-01-26T03:36:28;92956.34;;;-0.56;100.00
21658;BME280;10990;48.174;9.782;2023-01-26T03:38:55;92958.56;;;-0.61;100.00
21658;BME280;10990;48.174;9.782;2023-01-26T03:41:22;92946.00;;;-0.48;100.00
21658;BME280;10990;48.174;9.782;2023-01-26T03:44:06;92940.56;;;-0.45;100.00
21658;BME280;10990;48.174;9.782;2023-01-26T03:46:50;92936.38;;;-0.38;100.00
21658;BME280;10990;48.174;9.782;2023-01-26T03:49:39;92915.34;;;-0.27;100.00
21658;BME280;10990;48.174;9.782;2023-01-26T03:52:23;92921.22;;;-0.25;100.00
21658;BME280;10990;48.174;9.782;2023-01-26T03:55:08;92925.38;;;-0.32;100.00
21658;BME280;10990;48.174;9.782;2023-01-26T03:57:52;92940.00;;;-0.31;100.00
21658;BME280;10990;48.174;9.782;2023-01-26T04:00:19;92939.53;;;-0.26;100.00
21658;BME280;10990;48.174;9.782;2023-01-26T04:02:48;92950.22;;;-0.29;100.00
21658;BME280;10990;48.174;9.782;2023-01-26T04:05:35;92943.09;;;-0.27;100.00
21658;BME280;10990;48.174;9.782;2023-01-26T04:08:19;92949.78;;;-0.25;100.00
21658;BME280;10990;48.174;9.782;2023-01-26T04:10:47;92959.28;;;-0.33;100.00
21658;BME280;10990;48.174;9.782;2023-01-26T04:13:16;92965.13;;;-0.31;100.00
21658;BME280;10990;48.174;9.782;2023-01-26T04:16:06;92973.75;;;-0.31;100.00
21658;BME280;10990;48.174;9.782;2023-01-26T04:18:51;92983.78;;;-0.36;100.00
21658;BME280;10990;48.174;9.782;2023-01-26T04:21:36;93007.38;;;-0.47;100.00
21658;BME280;10990;48.174;9.782;2023-01-26T04:24:12;93008.03;;;-0.45;100.00
21658;BME280;10990;48.174;9.782;2023-01-26T04:26:41;93013.06;;;-0.43;100.00
21658;BME280;10990;48.174;9.782;2023-01-26T04:29:15;93006.63;;;-0.39;100.00
21658;BME280;10990;48.174;9.782;2023-01-26T04:31:44;92995.72;;;-0.25;100.00
21658;BME280;10990;48.174;9.782;2023-01-26T04:34:14;93018.78;;;-0.40;100.00
21658;BME280;10990;48.174;9.782;2023-01-26T04:36:43;93007.66;;;-0.32;100.00
21658;BME280;10990;48.174;9.782;2023-01-26T04:39:10;93049.41;;;-0.61;100.00
21658;BME280;10990;48.174;9.782;2023-01-26T04:41:42;93044.88;;;-0.59;100.00
21658;BME280;10990;48.174;9.782;2023-01-26T04:44:12;93040.75;;;-0.52;100.00
21658;BME280;10990;48.174;9.782;2023-01-26T04:46:39;93036.22;;;-0.50;100.00
21658;BME280;10990;48.174;9.782;2023-01-26T04:49:06;93050.75;;;-0.57;100.00
21658;BME280;10990;48.174;9.782;2023-01-26T04:51:33;93055.00;;;-0.56;100.00
21658;BME280;10990;48.174;9.782;2023-01-26T04:54:01;93047.84;;;-0.54;100.00
21658;BME280;10990;48.174;9.782;2023-01-26T04:56:31;93048.53;;;-0.52;100.00
21658;BME280;10990;48.174;9.782;2023-01-26T04:59:00;93053.19;;;-0.56;100.00
21658;BME280;10990;48.174;9.782;2023-01-26T05:01:27;93063.63;;;-0.65;100.00
21658;BME280;10990;48.174;9.782;2023-01-26T05:03:54;93070.22;;;-0.71;100.00
21658;BME280;10990;48.174;9.782;2023-01-26T05:06:21;93069.28;;;-0.70;100.00
21658;BME280;10990;48.174;9.782;2023-01-26T05:08:49;93071.28;;;-0.64;100.00
21658;BME280;10990;48.174;9.782;2023-01-26T05:11:18;93053.50;;;-0.59;100.00
21658;BME280;10990;48.174;9.782;2023-01-26T05:13:53;93077.56;;;-0.66;100.00
21658;BME280;10990;48.174;9.782;2023-01-26T05:16:39;93091.28;;;-0.74;100.00
21658;BME280;10990;48.174;9.782;2023-01-26T05:19:17;93081.97;;;-0.67;100.00
21658;BME280;10990;48.174;9.782;2023-01-26T05:21:49;93078.63;;;-0.59;100.00
21658;BME280;10990;48.174;9.782;2023-01-26T05:24:16;93093.28;;;-0.68;100.00
21658;BME280;10990;48.174;9.782;2023-01-26T05:26:59;93079.28;;;-0.57;100.00
21658;BME280;10990;48.174;9.782;2023-01-26T05:29:40;93096.22;;;-0.81;100.00
21658;BME280;10990;48.174;9.782;2023-01-26T05:32:07;93088.00;;;-0.76;100.00
21658;BME280;10990;48.174;9.782;2023-01-26T05:34:34;93092.38;;;-0.77;100.00
21658;BME280;10990;48.174;9.782;2023-01-26T05:37:02;93109.09;;;-0.89;100.00
21658;BME280;10990;48.174;9.782;2023-01-26T05:39:30;93103.91;;;-0.89;100.00
21658;BME280;10990;48.174;9.782;2023-01-26T05:42:00;93080.22;;;-0.76;100.00
21658;BME280;10990;48.174;9.782;2023-01-26T05:44:36;93090.66;;;-0.86;100.00
21658;BME280;10990;48.174;9.782;2023-01-26T05:47:09;93083.50;;;-0.74;100.00
21658;BME280;10990;48.174;9.782;2023-01-26T05:49:36;93089.50;;;-0.74;100.00
21658;BME280;10990;48.174;9.782;2023-01-26T05:52:09;93094.25;;;-0.69;100.00
21658;BME280;10990;48.174;9.782;2023-01-26T05:54:38;93104.81;;;-0.80;100.00
21658;BME280;10990;48.174;9.782;2023-01-26T05:57:07;93104.97;;;-0.82;100.00
21658;BME280;10990;48.174;9.782;2023-01-26T05:59:37;93100.16;;;-0.77;100.00
21658;BME280;10990;48.174;9.782;2023-01-26T06:02:06;93119.31;;;-0.87;100.00
21658;BME280;10990;48.174;9.782;2023-01-26T06:04:34;93126.00;;;-0.85;100.00
21658;BME280;10990;48.174;9.782;2023-01-26T06:07:01;93117.28;;;-0.84;100.00
21658;BME280;10990;48.174;9.782;2023-01-26T06:09:31;93109.03;;;-0.79;100.00
21658;BME280;10990;48.174;9.782;2023-01-26T06:12:19;93098.84;;;-0.63;100.00
21658;BME280;10990;48.174;9.782;2023-01-26T06:14:55;93109.25;;;-0.63;100.00
21658;BME280;10990;48.174;9.782;2023-01-26T06:17:24;93109.81;;;-0.69;100.00
21658;BME280;10990;48.174;9.782;2023-01-26T06:19:56;93116.13;;;-0.72;100.00
21658;BME280;10990;48.174;9.782;2023-01-26T06:22:26;93128.06;;;-0.79;100.00
21658;BME280;10990;48.174;9.782;2023-01-26T06:24:53;93128.31;;;-0.82;100.00
21658;BME280;10990;48.174;9.782;2023-01-26T06:27:21;93131.47;;;-0.88;100.00
21658;BME280;10990;48.174;9.782;2023-01-26T06:29:49;93109.53;;;-0.66;100.00
21658;BME280;10990;48.174;9.782;2023-01-26T06:32:16;93101.72;;;-0.56;100.00
21658;BME280;10990;48.174;9.782;2023-01-26T06:34:46;93103.47;;;-0.57;100.00
21658;BME280;10990;48.174;9.782;2023-01-26T06:37:13;93084.66;;;-0.41;100.00
21658;BME280;10990;48.174;9.782;2023-01-26T06:39:40;93095.75;;;-0.49;100.00
21658;BME280;10990;48.174;9.782;2023-01-26T06:42:07;93116.22;;;-0.63;100.00
21658;BME280;10990;48.174;9.782;2023-01-26T06:44:36;93126.22;;;-0.69;100.00
21658;BME280;10990;48.174;9.782;2023-01-26T06:47:04;93127.41;;;-0.63;100.00
21658;BME280;10990;48.174;9.782;2023-01-26T06:49:31;93147.16;;;-0.80;100.00
21658;BME280;10990;48.174;9.782;2023-01-26T06:52:04;93161.50;;;-0.76;100.00
21658;BME280;10990;48.174;9.782;2023-01-26T06:54:51;93156.41;;;-0.68;100.00
21658;BME280;10990;48.174;9.782;2023-01-26T06:57:53;93135.50;;;-0.48;100.00
21658;BME280;10990;48.174;9.782;2023-01-26T07:00:51;93137.84;;;-0.45;100.00
21658;BME280;10990;48.174;9.782;2023-01-26T07:03:25;93170.59;;;-0.62;100.00
21658;BME280;10990;48.174;9.782;2023-01-26T07:05:52;93184.66;;;-0.64;100.00
21658;BME280;10990;48.174;9.782;2023-01-26T07:08:18;93186.59;;;-0.66;100.00
21658;BME280;10990;48.174;9.782;2023-01-26T07:10:45;93202.16;;;-0.76;100.00
21658;BME280;10990;48.174;9.782;2023-01-26T07:13:12;93206.41;;;-0.75;100.00
21658;BME280;10990;48.174;9.782;2023-01-26T07:15:38;93182.69;;;-0.53;100.00
21658;BME280;10990;48.174;9.782;2023-01-26T07:18:06;93187.91;;;-0.62;100.00
21658;BME280;10990;48.174;9.782;2023-01-26T07:20:33;93186.00;;;-0.60;100.00
21658;BME280;10990;48.174;9.782;2023-01-26T07:23:00;93188.28;;;-0.48;100.00
21658;BME280;10990;48.174;9.782;2023-01-26T07:25:27;93224.81;;;-0.69;100.00
21658;BME280;10990;48.174;9.782;2023-01-26T07:27:55;93214.25;;;-0.57;100.00
21658;BME280;10990;48.174;9.782;2023-01-26T07:30:21;93215.47;;;-0.52;100.00
21658;BME280;10990;48.174;9.782;2023-01-26T07:32:48;93217.94;;;-0.50;100.00
21658;BME280;10990;48.174;9.782;2023-01-26T07:35:16;93199.22;;;-0.26;100.00
21658;BME280;10990;48.174;9.782;2023-01-26T07:37:43;93223.47;;;-0.35;100.00
21658;BME280;10990;48.174;9.782;2023-01-26T07:40:10;93245.75;;;-0.42;100.00
21658;BME280;10990;48.174;9.782;2023-01-26T07:42:37;93267.09;;;-0.39;100.00
21658;BME280;10990;48.174;9.782;2023-01-26T07:45:17;93260.16;;;-0.20;100.00
21658;BME280;10990;48.174;9.782;2023-01-26T07:47:43;93264.25;;;-0.18;100.00
21658;BME280;10990;48.174;9.782;2023-01-26T07:50:10;93273.13;;;-0.20;100.00
21658;BME280;10990;48.174;9.782;2023-01-26T07:52:39;93285.28;;;-0.11;100.00
21658;BME280;10990;48.174;9.782;2023-01-26T07:55:08;93282.50;;;0.00;100.00
21658;BME280;10990;48.174;9.782;2023-01-26T07:57:35;93295.03;;;0.05;100.00
21658;BME280;10990;48.174;9.782;2023-01-26T08:00:03;93332.88;;;-0.20;100.00
21658;BME280;10990;48.174;9.782;2023-01-26T08:02:37;93328.47;;;-0.10;100.00
21658;BME280;10990;48.174;9.782;2023-01-26T08:05:04;93326.38;;;0.03;100.00
21658;BME280;10990;48.174;9.782;2023-01-26T08:07:31;93334.72;;;-0.03;100.00
21658;BME280;10990;48.174;9.782;2023-01-26T08:09:59;93347.16;;;0.03;100.00
21658;BME280;10990;48.174;9.782;2023-01-26T08:12:26;93350.41;;;0.05;100.00
21658;BME280;10990;48.174;9.782;2023-01-26T08:14:53;93382.50;;;-0.14;100.00
21658;BME280;10990;48.174;9.782;2023-01-26T08:17:19;93365.72;;;0.08;100.00
21658;BME280;10990;48.174;9.782;2023-01-26T08:19:46;93386.31;;;-0.08;100.00
21658;BME280;10990;48.174;9.782;2023-01-26T08:22:13;93401.34;;;-0.02;100.00
21658;BME280;10990;48.174;9.782;2023-01-26T08:24:39;93415.31;;;-0.13;100.00
21658;BME280;10990;48.174;9.782;2023-01-26T08:27:07;93418.19;;;-0.16;100.00
21658;BME280;10990;48.174;9.782;2023-01-26T08:29:34;93412.53;;;-0.02;100.00
21658;BME280;10990;48.174;9.782;2023-01-26T08:32:01;93413.06;;;0.12;100.00
21658;BME280;10990;48.174;9.782;2023-01-26T08:34:28;93423.72;;;0.09;100.00
21658;BME280;10990;48.174;9.782;2023-01-26T08:36:55;93440.88;;;-0.08;100.00
21658;BME280;10990;48.174;9.782;2023-01-26T08:39:21;93445.06;;;0.03;100.00
21658;BME280;10990;48.174;9.782;2023-01-26T08:41:48;93439.41;;;0.17;100.00
21658;BME280;10990;48.174;9.782;2023-01-26T08:44:16;93451.19;;;0.21;100.00
21658;BME280;10990;48.174;9.782;2023-01-26T08:46:43;93452.09;;;0.30;100.00
21658;BME280;10990;48.174;9.782;2023-01-26T08:49:09;93453.44;;;0.34;100.00
21658;BME280;10990;48.174;9.782;2023-01-26T08:51:36;93466.59;;;0.32;100.00
21658;BME280;10990;48.174;9.782;2023-01-26T08:54:04;93469.19;;;0.32;100.00
21658;BME280;10990;48.174;9.782;2023-01-26T08:56:32;93487.53;;;0.31;100.00
21658;BME280;10990;48.174;9.782;2023-01-26T08:58:59;93504.09;;;0.30;100.00
21658;BME280;10990;48.174;9.782;2023-01-26T09:01:27;93507.53;;;0.20;100.00
21658;BME280;10990;48.174;9.782;2023-01-26T09:03:54;93513.00;;;0.27;100.00
21658;BME280;10990;48.174;9.782;2023-01-26T09:06:21;93508.88;;;0.34;100.00
21658;BME280;10990;48.174;9.782;2023-01-26T09:08:47;93527.75;;;0.36;100.00
21658;BME280;10990;48.174;9.782;2023-01-26T09:11:14;93548.25;;;0.39;100.00
21658;BME280;10990;48.174;9.782;2023-01-26T09:13:41;93557.59;;;0.22;100.00
21658;BME280;10990;48.174;9.782;2023-01-26T09:16:14;93573.06;;;0.24;100.00
21658;BME280;10990;48.174;9.782;2023-01-26T09:18:42;93563.59;;;0.42;100.00
21658;BME280;10990;48.174;9.782;2023-01-26T09:21:09;93585.22;;;0.33;100.00
21658;BME280;10990;48.174;9.782;2023-01-26T09:23:36;93603.28;;;0.25;100.00
21658;BME280;10990;48.174;9.782;2023-01-26T09:26:03;93601.22;;;0.38;100.00
21658;BME280;10990;48.174;9.782;2023-01-26T09:28:30;93607.25;;;0.39;100.00
21658;BME280;10990;48.174;9.782;2023-01-26T09:31:01;93614.75;;;0.42;100.00
21658;BME280;10990;48.174;9.782;2023-01-26T09:33:27;93614.44;;;0.64;100.00
21658;BME280;10990;48.174;9.782;2023-01-26T09:36:00;93660.22;;;0.38;100.00
21658;BME280;10990;48.174;9.782;2023-01-26T09:38:27;93667.03;;;0.39;100.00
21658;BME280;10990;48.174;9.782;2023-01-26T09:41:03;93700.84;;;0.19;100.00
21658;BME280;10990;48.174;9.782;2023-01-26T09:43:36;93717.25;;;0.10;100.00
21658;BME280;10990;48.174;9.782;2023-01-26T09:46:11;93706.88;;;0.30;100.00
21658;BME280;10990;48.174;9.782;2023-01-26T09:48:43;93736.09;;;0.03;100.00
21658;BME280;10990;48.174;9.782;2023-01-26T09:51:17;93736.41;;;0.09;100.00
21658;BME280;10990;48.174;9.782;2023-01-26T09:53:52;93758.09;;;-0.11;100.00
21658;BME280;10990;48.174;9.782;2023-01-26T09:56:22;93741.19;;;0.14;100.00
21658;BME280;10990;48.174;9.782;2023-01-26T09:58:57;93733.97;;;0.27;100.00
21658;BME280;10990;48.174;9.782;2023-01-26T10:01:28;93732.88;;;0.30;100.00
21658;BME280;10990;48.174;9.782;2023-01-26T10:04:03;93724.25;;;0.39;100.00
21658;BME280;10990;48.174;9.782;2023-01-26T10:06:33;93730.41;;;0.38;100.00
21658;BME280;10990;48.174;9.782;2023-01-26T10:09:21;93745.03;;;0.39;100.00
21658;BME280;10990;48.174;9.782;2023-01-26T10:11:52;93748.19;;;0.33;100.00
21658;BME280;10990;48.174;9.782;2023-01-26T10:14:27;93748.47;;;0.20;100.00
21658;BME280;10990;48.174;9.782;2023-01-26T10:16:57;93725.22;;;0.38;100.00
21658;BME280;10990;48.174;9.782;2023-01-26T10:19:31;93724.94;;;0.41;100.00
21658;BME280;10990;48.174;9.782;2023-01-26T10:22:07;93730.13;;;0.41;100.00
21658;BME280;10990;48.174;9.782;2023-01-26T10:24:38;93726.03;;;0.38;100.00
21658;BME280;10990;48.174;9.782;2023-01-26T10:27:09;93718.50;;;0.45;100.00
21658;BME280;10990;48.174;9.782;2023-01-26T10:29:38;93720.56;;;0.51;100.00
21658;BME280;10990;48.174;9.782;2023-01-26T10:32:05;93710.31;;;0.59;100.00
21658;BME280;10990;48.174;9.782;2023-01-26T10:34:32;93707.56;;;0.61;100.00
21658;BME280;10990;48.174;9.782;2023-01-26T10:37:17;93720.97;;;0.56;100.00
21658;BME280;10990;48.174;9.782;2023-01-26T10:40:03;93715.22;;;0.53;100.00
21658;BME280;10990;48.174;9.782;2023-01-26T10:42:34;93719.72;;;0.51;100.00
21658;BME280;10990;48.174;9.782;2023-01-26T10:45:03;93740.66;;;0.39;100.00
21658;BME280;10990;48.174;9.782;2023-01-26T10:47:30;93737.94;;;0.51;100.00
21658;BME280;10990;48.174;9.782;2023-01-26T10:50:18;93748.47;;;0.39;100.00
21658;BME280;10990;48.174;9.782;2023-01-26T10:53:00;93775.66;;;0.16;100.00
21658;BME280;10990;48.174;9.782;2023-01-26T10:55:29;93768.13;;;0.13;100.00
21658;BME280;10990;48.174;9.782;2023-01-26T10:57:56;93773.72;;;-0.02;100.00
21658;BME280;10990;48.174;9.782;2023-01-26T11:00:25;93775.22;;;0.01;100.00
21658;BME280;10990;48.174;9.782;2023-01-26T11:02:57;93758.28;;;0.07;100.00
21658;BME280;10990;48.174;9.782;2023-01-26T11:05:26;93774.47;;;-0.20;100.00
21658;BME280;10990;48.174;9.782;2023-01-26T11:07:53;93757.41;;;-0.13;100.00
21658;BME280;10990;48.174;9.782;2023-01-26T11:10:29;93768.09;;;-0.37;100.00
21658;BME280;10990;48.174;9.782;2023-01-26T11:13:07;93755.09;;;-0.47;100.00
21658;BME280;10990;48.174;9.782;2023-01-26T11:15:40;93743.78;;;-0.36;100.00
21658;BME280;10990;48.174;9.782;2023-01-26T11:18:15;93729.97;;;-0.37;100.00
21658;BME280;10990;48.174;9.782;2023-01-26T11:20:48;93697.50;;;-0.12;100.00
21658;BME280;10990;48.174;9.782;2023-01-26T11:23:23;93687.97;;;-0.02;100.00
21658;BME280;10990;48.174;9.782;2023-01-26T11:26:13;93675.50;;;0.02;100.00
21658;BME280;10990;48.174;9.782;2023-01-26T11:28:52;93663.06;;;0.06;100.00
21658;BME280;10990;48.174;9.782;2023-01-26T11:31:28;93675.09;;;-0.13;100.00
21658;BME280;10990;48.174;9.782;2023-01-26T11:34:08;93678.19;;;-0.29;100.00
21658;BME280;10990;48.174;9.782;2023-01-26T11:36:42;93668.09;;;-0.22;100.00
21658;BME280;10990;48.174;9.782;2023-01-26T11:39:18;93657.72;;;-0.22;100.00
21658;BME280;10990;48.174;9.782;2023-01-26T11:42:00;93636.53;;;-0.08;100.00
21658;BME280;10990;48.174;9.782;2023-01-26T11:44:45;93606.84;;;0.05;100.00
21658;BME280;10990;48.174;9.782;2023-01-26T11:47:22;93640.31;;;-0.41;100.00
21658;BME280;10990;48.174;9.782;2023-01-26T11:50:15;93633.59;;;-0.43;100.00
21658;BME280;10990;48.174;9.782;2023-01-26T11:52:50;93641.94;;;-0.50;100.00
21658;BME280;10990;48.174;9.782;2023-01-26T11:55:23;93643.03;;;-0.42;100.00
21658;BME280;10990;48.174;9.782;2023-01-26T11:58:05;93636.22;;;-0.34;100.00
21658;BME280;10990;48.174;9.782;2023-01-26T12:00:39;93623.25;;;-0.24;100.00
21658;BME280;10990;48.174;9.782;2023-01-26T12:03:16;93630.63;;;-0.29;100.00
21658;BME280;10990;48.174;9.782;2023-01-26T12:05:47;93620.91;;;-0.17;100.00
21658;BME280;10990;48.174;9.782;2023-01-26T12:08:21;93620.81;;;-0.16;100.00
21658;BME280;10990;48.174;9.782;2023-01-26T12:10:57;93601.25;;;-0.01;100.00
21658;BME280;10990;48.174;9.782;2023-01-26T12:13:54;93606.44;;;-0.10;100.00
21658;BME280;10990;48.174;9.782;2023-01-26T12:16:28;93592.09;;;0.05;100.00
21658;BME280;10990;48.174;9.782;2023-01-26T12:19:04;93584.00;;;0.08;100.00
21658;BME280;10990;48.174;9.782;2023-01-26T12:21:35;93588.13;;;0.11;100.00
21658;BME280;10990;48.174;9.782;2023-01-26T12:24:04;93600.31;;;0.01;100.00
21658;BME280;10990;48.174;9.782;2023-01-26T12:26:34;93614.09;;;-0.18;100.00
21658;BME280;10990;48.174;9.782;2023-01-26T12:29:11;93610.25;;;-0.24;100.00
21658;BME280;10990;48.174;9.782;2023-01-26T12:31:44;93588.13;;;-0.18;100.00
21658;BME280;10990;48.174;9.782;2023-01-26T12:34:12;93596.59;;;-0.36;100.00
21658;BME280;10990;48.174;9.782;2023-01-26T12:36:43;93577.03;;;-0.40;100.00
21658;BME280;10990;48.174;9.782;2023-01-26T12:39:15;93569.66;;;-0.35;100.00
21658;BME280;10990;48.174;9.782;2023-01-26T12:42:12;93539.03;;;-0.21;100.00
21658;BME280;10990;48.174;9.782;2023-01-26T12:44:45;93537.28;;;-0.31;100.00
21658;BME280;10990;48.174;9.782;2023-01-26T12:47:16;93522.50;;;-0.20;100.00
21658;BME280;10990;48.174;9.782;2023-01-26T12:49:50;93522.50;;;-0.20;100.00
21658;BME280;10990;48.174;9.782;2023-01-26T12:52:22;93522.78;;;-0.14;100.00
21658;BME280;10990;48.174;9.782;2023-01-26T12:54:56;93524.16;;;-0.19;100.00
21658;BME280;10990;48.174;9.782;2023-01-26T12:57:28;93533.84;;;-0.21;100.00
21658;BME280;10990;48.174;9.782;2023-01-26T13:00:05;93536.03;;;-0.27;100.00
21658;BME280;10990;48.174;9.782;2023-01-26T13:02:35;93523.88;;;-0.16;100.00
21658;BME280;10990;48.174;9.782;2023-01-26T13:05:03;93541.50;;;-0.10;100.00
21658;BME280;10990;48.174;9.782;2023-01-26T13:07:34;93532.88;;;0.09;100.00
21658;BME280;10990;48.174;9.782;2023-01-26T13:10:18;93554.19;;;0.03;100.00
21658;BME280;10990;48.174;9.782;2023-01-26T13:12:47;93567.63;;;-0.02;100.00
21658;BME280;10990;48.174;9.782;2023-01-26T13:15:16;93579.66;;;-0.11;100.00